SCC: Watkins Glen: Practice one times

Pos Num Class ClsP Team Time Gap To 1st Speed --- --- ----- ---- ------------------------------ ---------- ------- ------- ------- 1. 99 GS 1 Automatic Racing 2:05.631 ...

Pos Num Class ClsP Team                                 Time     Gap  To 1st   Speed
--- --- ----- ---- ------------------------------ ---------- ------- ------- -------
 1.  99 GS    1    Automatic Racing                 2:05.631                  97.428
 2.  55 GS    2    Hyper Sport                      2:06.040   0.409   0.409  97.112
 3.  42 GS    3    TRG                              2:06.113   0.073   0.482  97.056
 4.  25 GS    4    Fiorano/C-MAX Racing             2:06.307   0.194   0.676  96.907
 5.  09 GS    5    Automatic Racing                 2:06.378   0.071   0.747  96.852
 6.  97 GS    6    Turner Motorsport                2:06.913   0.535   1.282  96.444
 7.  38 GS    7    BGB Motorsports                  2:06.936   0.023   1.305  96.427
 8.  91 GS    8    Automatic Racing                 2:06.941   0.005   1.310  96.423
 9.  40 GS    9    TRG                              2:06.980   0.039   1.349  96.393
10.  52 GS    10   Rehagen Racing                   2:07.012   0.032   1.381  96.369
11.  88 GS    11   Ranger Sports Racing             2:07.564   0.552   1.933  95.952
12.  39 GS    12   TRG                              2:07.631   0.067   2.000  95.901
13.  37 GS    13   JBS Racing                       2:07.772   0.141   2.141  95.796
14.  90 GS    14   Automatic Racing                 2:07.903   0.131   2.272  95.698
15.  59 GS    15   Rehagen Racing                   2:07.945   0.042   2.314  95.666
16.  96 GS    16   Turner Motorsport                2:08.498   0.553   2.867  95.254
17.  41 GS    17   TRG                              2:08.631   0.133   3.000  95.156
18.  54 GS    18   Hyper Sport                      2:08.930   0.299   3.299  94.935
19.  21 GS    19   Bodymotion Racing                2:09.018   0.088   3.387  94.870
20.  28 GS    20   Fall-Line Motorsports            2:09.186   0.168   3.555  94.747
21. 154 GS    21   Rehagen Racing                   2:09.203   0.017   3.572  94.735
22.  43 GS    22   ASC Motorsports                  2:09.232   0.029   3.601  94.713
23.   4 GS    23   Blackforest Motorsports          2:09.356   0.124   3.725  94.623
24.  26 GS    24   Fiorano/C-MAX Racing             2:09.453   0.097   3.822  94.552
25.  46 GS    25   Fall-Line Motorsports            2:09.866   0.413   4.235  94.251
26.  07 GS    26   Cardiosport Racing               2:10.303   0.437   4.672  93.935
27.  47 GS    27   TF Racing                        2:10.485   0.182   4.854  93.804
28.  89 GS    28   Ranger Sports Racing             2:10.799   0.314   5.168  93.579
29.  17 GS    29   Team Centurion                   2:11.022   0.223   5.391  93.419
30.  87 GS    30   Ranger Sports Racing             2:12.139   1.117   6.508  92.630
31.  75 ST    1    Kensai Racing                    2:12.453   0.314   6.822  92.410
32.  83 GS    31   BGB Motorsports                  2:12.621   0.168   6.990  92.293
33. 127 ST    2    Fountain Motorsports             2:12.714   0.093   7.083  92.228
34.  86 ST    3    Classic BMW - Plano              2:12.977   0.263   7.346  92.046
35.  76 ST    4    Kensai Racing                    2:13.323   0.346   7.692  91.807
36.  95 ST    5    Turner Motorsport                2:13.426   0.103   7.795  91.736
37.   2 GS    32   Blackforest Motorsports          2:13.531   0.105   7.900  91.664
38.  22 ST    6    HART                             2:13.560   0.029   7.929  91.644
39.  30 GS    33   Fastmetal Motorsports            2:13.617   0.057   7.986  91.605
40.  29 ST    7    Bill Fenton Motorsports          2:13.720   0.103   8.089  91.535
41.  31 ST    8    i-MOTO Racing                    2:13.767   0.047   8.136  91.502
42.  27 ST    9    Bill Fenton Motorsports          2:14.622   0.855   8.991  90.921
43.  74 ST    10   Kensai Racing                    2:14.978   0.356   9.347  90.681
44.  58 ST    11   BSI Racing                       2:15.404   0.426   9.773  90.396
45.  56 ST    12   BSI Racing                       2:15.680   0.276  10.049  90.212
46.  69 ST    13   SpeedSource                      2:16.171   0.491  10.540  89.887
47. 174 ST    14   LRT Racing                       2:16.503   0.332  10.872  89.668
48.  64 ST    15   T Giovanis Motorsport            2:16.823   0.320  11.192  89.459
49.  49 GS    34   Marcus Motorsports               2:17.044   0.221  11.413  89.314
50. 197 ST    16   RSR Motorsports                  2:18.374   1.330  12.743  88.456
51.  13 ST    17   SDS Performance Racing           2:18.898   0.524  13.267  88.122
52. 137 GS    35   JBS Motorsports                  2:18.926   0.028  13.295  88.104
53. 198 ST    18   RSR Motorsports                  2:19.983   1.057  14.352  87.439
54.  79 GS    36   Kinetic Motorsports              2:21.588   1.605  15.957  86.448
55. 125 ST    19   Fountain Motorsports             2:28.436   6.848  22.805  82.460
56. 126 ST    20   Fountain Motorsports             2:30.823   2.387  25.192  81.155
57.  73 ST    21   SDS Performance Group            2:35.854   5.031  30.223  78.535
58.   5 GS    37   Blackforest Motorsports           No Time
59.  82 GS    38   BRG/Group 88 Motorsports          No Time
60.  01 ST    22   Georgian Bay Motorsports          No Time
61.  02 ST    23   Blackforest Motorsports           No Time
62.  53 ST    24   Predator Auto Sport               No Time

Be part of something big

Write a comment
Show comments
About this article
Series Grand-Am
Drivers Bill Fenton
Teams Kinetic Motorsports , Rehagen Racing , Turner Motorsport , Automatic Racing , LRT Racing , HART , Fall-Line Motorsports , Bodymotion Racing , SpeedSource